sensor_id;sensor_type;location;lat;lon;timestamp;pressure;altitude;pressure_sealevel;temperature;humidity
55759;BME280;41678;52.126;20.664;2023-07-31T00:04:00;99709.53;;;18.58;74.88
55759;BME280;41678;52.126;20.664;2023-07-31T00:09:20;99718.66;;;18.53;74.59
55759;BME280;41678;52.126;20.664;2023-07-31T00:14:39;99716.22;;;18.49;74.67
55759;BME280;41678;52.126;20.664;2023-07-31T00:19:59;99713.91;;;18.43;74.67
55759;BME280;41678;52.126;20.664;2023-07-31T00:25:18;99712.25;;;18.40;74.78
55759;BME280;41678;52.126;20.664;2023-07-31T00:30:38;99700.19;;;18.33;74.57
55759;BME280;41678;52.126;20.664;2023-07-31T00:35:57;99700.34;;;18.30;74.92
55759;BME280;41678;52.126;20.664;2023-07-31T00:41:19;99692.78;;;18.22;74.75
55759;BME280;41678;52.126;20.664;2023-07-31T00:46:38;99697.38;;;18.18;74.78
55759;BME280;41678;52.126;20.664;2023-07-31T00:51:59;99703.81;;;18.14;75.01
55759;BME280;41678;52.126;20.664;2023-07-31T00:57:19;99698.84;;;18.08;74.75
55759;BME280;41678;52.126;20.664;2023-07-31T01:02:38;99703.44;;;18.04;75.03
55759;BME280;41678;52.126;20.664;2023-07-31T01:13:40;99703.81;;;17.96;75.04
55759;BME280;41678;52.126;20.664;2023-07-31T01:19:00;99701.56;;;17.89;74.78
55759;BME280;41678;52.126;20.664;2023-07-31T01:24:33;99709.59;;;17.87;75.11
55759;BME280;41678;52.126;20.664;2023-07-31T01:30:05;99705.38;;;17.83;75.18
55759;BME280;41678;52.126;20.664;2023-07-31T01:35:29;99719.81;;;17.79;75.13
55759;BME280;41678;52.126;20.664;2023-07-31T01:40:53;99721.91;;;17.72;75.08
55759;BME280;41678;52.126;20.664;2023-07-31T01:46:13;99730.91;;;17.69;75.39
55759;BME280;41678;52.126;20.664;2023-07-31T01:51:33;99725.75;;;17.66;75.31
55759;BME280;41678;52.126;20.664;2023-07-31T01:56:56;99713.53;;;17.62;75.34
55759;BME280;41678;52.126;20.664;2023-07-31T02:02:16;99721.75;;;17.58;75.64
55759;BME280;41678;52.126;20.664;2023-07-31T02:07:35;99725.50;;;17.53;75.52
55759;BME280;41678;52.126;20.664;2023-07-31T02:12:55;99732.78;;;17.50;75.57
55759;BME280;41678;52.126;20.664;2023-07-31T02:18:14;99733.63;;;17.50;75.58
55759;BME280;41678;52.126;20.664;2023-07-31T02:23:33;99740.59;;;17.53;75.64
55759;BME280;41678;52.126;20.664;2023-07-31T02:28:53;99739.59;;;17.55;75.74
55759;BME280;41678;52.126;20.664;2023-07-31T02:34:12;99730.72;;;17.55;75.93
55759;BME280;41678;52.126;20.664;2023-07-31T02:39:32;99725.34;;;17.56;75.80
55759;BME280;41678;52.126;20.664;2023-07-31T02:44:51;99735.13;;;17.56;75.80
55759;BME280;41678;52.126;20.664;2023-07-31T02:50:15;99728.72;;;17.60;75.98
55759;BME280;41678;52.126;20.664;2023-07-31T02:55:34;99731.13;;;17.65;76.20
55759;BME280;41678;52.126;20.664;2023-07-31T03:00:54;99739.22;;;17.63;76.20
55759;BME280;41678;52.126;20.664;2023-07-31T03:06:13;99745.53;;;17.61;76.02
55759;BME280;41678;52.126;20.664;2023-07-31T03:11:32;99749.88;;;17.63;76.28
55759;BME280;41678;52.126;20.664;2023-07-31T03:16:52;99756.03;;;17.64;76.46
55759;BME280;41678;52.126;20.664;2023-07-31T03:22:12;99750.69;;;17.64;76.58
55759;BME280;41678;52.126;20.664;2023-07-31T03:27:31;99763.94;;;17.65;76.82
55759;BME280;41678;52.126;20.664;2023-07-31T03:32:51;99773.66;;;17.66;76.57
55759;BME280;41678;52.126;20.664;2023-07-31T03:38:10;99769.13;;;17.68;76.62
55759;BME280;41678;52.126;20.664;2023-07-31T03:43:30;99772.88;;;17.64;76.64
55759;BME280;41678;52.126;20.664;2023-07-31T03:48:50;99774.59;;;17.65;76.63
55759;BME280;41678;52.126;20.664;2023-07-31T03:54:10;99781.66;;;17.66;76.88
55759;BME280;41678;52.126;20.664;2023-07-31T03:59:30;99785.88;;;17.70;76.79
55759;BME280;41678;52.126;20.664;2023-07-31T04:04:49;99790.56;;;17.65;77.03
55759;BME280;41678;52.126;20.664;2023-07-31T04:10:09;99798.50;;;17.67;77.00
55759;BME280;41678;52.126;20.664;2023-07-31T04:15:29;99797.78;;;17.63;76.50
55759;BME280;41678;52.126;20.664;2023-07-31T04:20:49;99808.22;;;17.68;77.05
55759;BME280;41678;52.126;20.664;2023-07-31T04:26:08;99802.16;;;17.64;76.91
55759;BME280;41678;52.126;20.664;2023-07-31T04:31:28;99801.22;;;17.65;77.09
55759;BME280;41678;52.126;20.664;2023-07-31T04:36:47;99807.47;;;17.64;77.01
55759;BME280;41678;52.126;20.664;2023-07-31T04:42:07;99806.38;;;17.68;77.44
55759;BME280;41678;52.126;20.664;2023-07-31T04:47:26;99808.88;;;17.72;77.27
55759;BME280;41678;52.126;20.664;2023-07-31T04:52:45;99813.44;;;17.69;77.07
55759;BME280;41678;52.126;20.664;2023-07-31T04:58:05;99814.09;;;17.75;77.33
55759;BME280;41678;52.126;20.664;2023-07-31T05:03:25;99820.31;;;17.74;77.22
55759;BME280;41678;52.126;20.664;2023-07-31T05:08:45;99819.31;;;17.76;77.41
55759;BME280;41678;52.126;20.664;2023-07-31T05:14:04;99823.66;;;17.79;77.67
55759;BME280;41678;52.126;20.664;2023-07-31T05:19:24;99832.41;;;17.81;77.65
55759;BME280;41678;52.126;20.664;2023-07-31T05:24:44;99841.81;;;17.88;78.08
55759;BME280;41678;52.126;20.664;2023-07-31T05:30:05;99832.97;;;17.88;78.08
55759;BME280;41678;52.126;20.664;2023-07-31T05:35:25;99832.09;;;17.87;77.91
55759;BME280;41678;52.126;20.664;2023-07-31T05:40:44;99843.41;;;17.92;78.04
55759;BME280;41678;52.126;20.664;2023-07-31T05:46:04;99847.63;;;17.96;78.32
55759;BME280;41678;52.126;20.664;2023-07-31T05:51:24;99856.72;;;17.92;77.81
55759;BME280;41678;52.126;20.664;2023-07-31T05:56:43;99862.91;;;17.93;77.98
55759;BME280;41678;52.126;20.664;2023-07-31T06:02:03;99862.13;;;17.91;78.00
55759;BME280;41678;52.126;20.664;2023-07-31T06:07:23;99860.34;;;17.91;77.91
55759;BME280;41678;52.126;20.664;2023-07-31T06:12:43;99855.06;;;17.90;78.25
55759;BME280;41678;52.126;20.664;2023-07-31T06:18:02;99871.09;;;17.88;78.18
55759;BME280;41678;52.126;20.664;2023-07-31T06:23:22;99868.38;;;17.90;78.12
55759;BME280;41678;52.126;20.664;2023-07-31T06:28:42;99859.66;;;17.86;78.23
55759;BME280;41678;52.126;20.664;2023-07-31T06:34:02;99870.72;;;17.96;78.17
55759;BME280;41678;52.126;20.664;2023-07-31T06:39:22;99870.88;;;17.93;78.20
55759;BME280;41678;52.126;20.664;2023-07-31T06:44:42;99877.56;;;18.02;78.46
55759;BME280;41678;52.126;20.664;2023-07-31T06:50:01;99875.81;;;18.02;78.05
55759;BME280;41678;52.126;20.664;2023-07-31T06:55:22;99873.53;;;18.12;78.01
55759;BME280;41678;52.126;20.664;2023-07-31T07:00:42;99861.56;;;18.21;78.34
55759;BME280;41678;52.126;20.664;2023-07-31T07:12:34;99873.44;;;18.50;78.06
55759;BME280;41678;52.126;20.664;2023-07-31T07:17:53;99860.88;;;18.52;78.07
55759;BME280;41678;52.126;20.664;2023-07-31T07:23:17;99863.53;;;18.70;78.22
55759;BME280;41678;52.126;20.664;2023-07-31T07:28:37;99861.00;;;18.85;78.15
55759;BME280;41678;52.126;20.664;2023-07-31T07:33:57;99866.69;;;18.94;78.00
55759;BME280;41678;52.126;20.664;2023-07-31T07:39:16;99863.66;;;19.02;77.69
55759;BME280;41678;52.126;20.664;2023-07-31T07:44:36;99855.75;;;19.17;77.75
55759;BME280;41678;52.126;20.664;2023-07-31T07:49:55;99860.25;;;19.32;77.43
55759;BME280;41678;52.126;20.664;2023-07-31T07:55:14;99853.19;;;19.47;77.39
55759;BME280;41678;52.126;20.664;2023-07-31T08:00:34;99855.09;;;19.61;77.21
55759;BME280;41678;52.126;20.664;2023-07-31T08:05:58;99859.59;;;19.77;76.91
55759;BME280;41678;52.126;20.664;2023-07-31T08:11:18;99860.28;;;19.96;76.76
55759;BME280;41678;52.126;20.664;2023-07-31T08:16:37;99863.50;;;20.18;76.26
55759;BME280;41678;52.126;20.664;2023-07-31T08:21:57;99862.28;;;20.23;76.28
55759;BME280;41678;52.126;20.664;2023-07-31T08:27:17;99865.19;;;20.35;75.24
55759;BME280;41678;52.126;20.664;2023-07-31T08:32:36;99876.78;;;20.50;74.77
55759;BME280;41678;52.126;20.664;2023-07-31T08:37:56;99865.06;;;20.52;74.26
55759;BME280;41678;52.126;20.664;2023-07-31T08:43:15;99874.25;;;20.63;73.87
55759;BME280;41678;52.126;20.664;2023-07-31T08:48:35;99875.41;;;20.73;73.17
55759;BME280;41678;52.126;20.664;2023-07-31T08:53:56;99873.16;;;20.82;73.18
55759;BME280;41678;52.126;20.664;2023-07-31T08:59:17;99864.38;;;20.94;72.95
55759;BME280;41678;52.126;20.664;2023-07-31T09:04:39;99866.47;;;21.03;72.91
55759;BME280;41678;52.126;20.664;2023-07-31T09:09:59;99856.25;;;21.10;72.84
55759;BME280;41678;52.126;20.664;2023-07-31T09:15:18;99865.31;;;21.22;71.77
55759;BME280;41678;52.126;20.664;2023-07-31T09:20:38;99863.59;;;21.21;71.46
55759;BME280;41678;52.126;20.664;2023-07-31T09:25:57;99858.53;;;21.31;71.38
55759;BME280;41678;52.126;20.664;2023-07-31T09:31:38;99859.38;;;21.31;70.50
55759;BME280;41678;52.126;20.664;2023-07-31T09:37:01;99858.22;;;21.35;69.69
55759;BME280;41678;52.126;20.664;2023-07-31T09:42:27;99849.84;;;21.27;70.05
55759;BME280;41678;52.126;20.664;2023-07-31T09:47:48;99856.63;;;21.33;69.47
55759;BME280;41678;52.126;20.664;2023-07-31T09:53:09;99862.81;;;21.33;68.85
55759;BME280;41678;52.126;20.664;2023-07-31T09:58:34;99858.97;;;21.37;68.62
55759;BME280;41678;52.126;20.664;2023-07-31T10:03:54;99853.53;;;21.39;67.58
55759;BME280;41678;52.126;20.664;2023-07-31T10:09:15;99850.56;;;21.44;66.49
55759;BME280;41678;52.126;20.664;2023-07-31T10:14:38;99852.00;;;21.49;65.28
55759;BME280;41678;52.126;20.664;2023-07-31T10:19:59;99851.59;;;21.56;65.58
55759;BME280;41678;52.126;20.664;2023-07-31T10:25:24;99847.13;;;21.56;65.06
55759;BME280;41678;52.126;20.664;2023-07-31T10:30:45;99833.81;;;21.55;64.34
55759;BME280;41678;52.126;20.664;2023-07-31T10:36:19;99844.97;;;21.61;64.94
55759;BME280;41678;52.126;20.664;2023-07-31T10:41:40;99846.53;;;21.65;64.70
55759;BME280;41678;52.126;20.664;2023-07-31T10:47:00;99842.72;;;21.70;64.78
55759;BME280;41678;52.126;20.664;2023-07-31T10:52:21;99847.66;;;21.76;65.01
55759;BME280;41678;52.126;20.664;2023-07-31T10:57:47;99849.84;;;21.84;64.46
55759;BME280;41678;52.126;20.664;2023-07-31T11:03:09;99844.94;;;21.90;64.13
55759;BME280;41678;52.126;20.664;2023-07-31T11:08:33;99841.19;;;21.93;64.42
55759;BME280;41678;52.126;20.664;2023-07-31T11:13:54;99843.66;;;21.96;64.78
55759;BME280;41678;52.126;20.664;2023-07-31T11:19:14;99845.94;;;22.02;65.44
55759;BME280;41678;52.126;20.664;2023-07-31T11:24:34;99845.72;;;22.05;64.97
55759;BME280;41678;52.126;20.664;2023-07-31T11:30:00;99840.25;;;22.07;64.76
55759;BME280;41678;52.126;20.664;2023-07-31T11:35:20;99843.91;;;22.06;64.84
55759;BME280;41678;52.126;20.664;2023-07-31T11:40:44;99847.47;;;22.06;64.26
55759;BME280;41678;52.126;20.664;2023-07-31T11:46:03;99844.88;;;22.05;63.98
55759;BME280;41678;52.126;20.664;2023-07-31T11:51:24;99838.53;;;22.06;64.64
55759;BME280;41678;52.126;20.664;2023-07-31T11:56:44;99828.78;;;22.05;65.21
55759;BME280;41678;52.126;20.664;2023-07-31T12:02:04;99834.81;;;22.08;63.62
55759;BME280;41678;52.126;20.664;2023-07-31T12:07:25;99839.50;;;22.05;63.09
55759;BME280;41678;52.126;20.664;2023-07-31T12:12:55;99831.69;;;22.02;63.77
55759;BME280;41678;52.126;20.664;2023-07-31T12:18:18;99828.25;;;22.00;63.15
55759;BME280;41678;52.126;20.664;2023-07-31T12:23:38;99831.00;;;21.98;63.28
55759;BME280;41678;52.126;20.664;2023-07-31T12:28:58;99820.81;;;21.90;62.14
55759;BME280;41678;52.126;20.664;2023-07-31T12:34:19;99802.13;;;21.89;62.74
55759;BME280;41678;52.126;20.664;2023-07-31T12:39:40;99798.84;;;21.85;63.07
55759;BME280;41678;52.126;20.664;2023-07-31T12:44:59;99788.88;;;21.87;63.16
55759;BME280;41678;52.126;20.664;2023-07-31T12:50:19;99780.81;;;21.87;63.62
55759;BME280;41678;52.126;20.664;2023-07-31T12:55:38;99780.63;;;21.90;63.18
55759;BME280;41678;52.126;20.664;2023-07-31T13:00:58;99769.91;;;21.90;63.31
55759;BME280;41678;52.126;20.664;2023-07-31T13:06:17;99765.06;;;21.96;62.81
55759;BME280;41678;52.126;20.664;2023-07-31T13:11:36;99765.06;;;21.96;63.11
55759;BME280;41678;52.126;20.664;2023-07-31T13:16:57;99754.91;;;22.01;63.17
55759;BME280;41678;52.126;20.664;2023-07-31T13:22:17;99750.84;;;22.08;62.47
55759;BME280;41678;52.126;20.664;2023-07-31T13:27:37;99748.16;;;22.08;62.44
55759;BME280;41678;52.126;20.664;2023-07-31T13:32:56;99730.06;;;22.12;62.40
55759;BME280;41678;52.126;20.664;2023-07-31T13:38:15;99723.81;;;22.11;62.54
55759;BME280;41678;52.126;20.664;2023-07-31T13:43:35;99725.34;;;22.15;62.81
55759;BME280;41678;52.126;20.664;2023-07-31T13:48:56;99718.28;;;22.14;62.48
55759;BME280;41678;52.126;20.664;2023-07-31T13:54:15;99712.25;;;22.11;62.58
55759;BME280;41678;52.126;20.664;2023-07-31T13:59:35;99714.72;;;22.14;62.83
55759;BME280;41678;52.126;20.664;2023-07-31T14:04:55;99708.69;;;22.10;63.20
55759;BME280;41678;52.126;20.664;2023-07-31T14:10:15;99711.38;;;22.10;63.46
55759;BME280;41678;52.126;20.664;2023-07-31T14:15:34;99711.16;;;22.13;63.40
55759;BME280;41678;52.126;20.664;2023-07-31T14:20:55;99709.13;;;22.17;62.85
55759;BME280;41678;52.126;20.664;2023-07-31T14:26:14;99700.25;;;22.16;63.12
55759;BME280;41678;52.126;20.664;2023-07-31T14:31:34;99705.59;;;22.16;62.72
55759;BME280;41678;52.126;20.664;2023-07-31T14:36:53;99701.22;;;22.15;62.99
55759;BME280;41678;52.126;20.664;2023-07-31T14:42:13;99698.53;;;22.15;63.52
55759;BME280;41678;52.126;20.664;2023-07-31T14:47:33;99689.72;;;22.13;63.29
55759;BME280;41678;52.126;20.664;2023-07-31T14:52:53;99697.56;;;22.16;63.27
55759;BME280;41678;52.126;20.664;2023-07-31T14:58:12;99695.72;;;22.17;63.11
55759;BME280;41678;52.126;20.664;2023-07-31T15:03:33;99681.34;;;22.18;63.03
55759;BME280;41678;52.126;20.664;2023-07-31T15:08:53;99669.56;;;22.20;62.95
55759;BME280;41678;52.126;20.664;2023-07-31T15:14:13;99676.19;;;22.28;63.08
55759;BME280;41678;52.126;20.664;2023-07-31T15:19:32;99674.28;;;22.30;63.41
55759;BME280;41678;52.126;20.664;2023-07-31T15:24:54;99673.09;;;22.34;63.26
55759;BME280;41678;52.126;20.664;2023-07-31T15:30:13;99664.19;;;22.33;63.42
55759;BME280;41678;52.126;20.664;2023-07-31T15:35:33;99659.69;;;22.34;63.12
55759;BME280;41678;52.126;20.664;2023-07-31T15:40:52;99660.53;;;22.34;63.14
55759;BME280;41678;52.126;20.664;2023-07-31T15:46:12;99660.66;;;22.33;63.34
55759;BME280;41678;52.126;20.664;2023-07-31T15:51:32;99649.19;;;22.31;63.14
55759;BME280;41678;52.126;20.664;2023-07-31T15:56:52;99650.25;;;22.28;63.35
55759;BME280;41678;52.126;20.664;2023-07-31T16:02:12;99644.25;;;22.25;63.73
55759;BME280;41678;52.126;20.664;2023-07-31T16:07:31;99638.16;;;22.22;63.83
55759;BME280;41678;52.126;20.664;2023-07-31T16:12:51;99641.06;;;22.19;63.66
55759;BME280;41678;52.126;20.664;2023-07-31T16:18:11;99639.34;;;22.18;63.58
55759;BME280;41678;52.126;20.664;2023-07-31T16:23:30;99638.59;;;22.16;63.91
55759;BME280;41678;52.126;20.664;2023-07-31T16:28:49;99641.69;;;22.10;63.78
55759;BME280;41678;52.126;20.664;2023-07-31T16:34:09;99645.47;;;22.07;64.37
55759;BME280;41678;52.126;20.664;2023-07-31T16:39:28;99641.25;;;22.03;64.14
55759;BME280;41678;52.126;20.664;2023-07-31T16:44:54;99638.69;;;22.02;64.22
55759;BME280;41678;52.126;20.664;2023-07-31T16:50:14;99632.03;;;21.94;64.81
55759;BME280;41678;52.126;20.664;2023-07-31T16:55:35;99636.00;;;21.89;65.04
55759;BME280;41678;52.126;20.664;2023-07-31T17:00:55;99643.28;;;21.87;64.83
55759;BME280;41678;52.126;20.664;2023-07-31T17:06:17;99650.59;;;21.85;65.16
55759;BME280;41678;52.126;20.664;2023-07-31T17:11:37;99655.19;;;21.83;65.40
55759;BME280;41678;52.126;20.664;2023-07-31T17:16:57;99660.03;;;21.77;65.48
55759;BME280;41678;52.126;20.664;2023-07-31T17:22:16;99673.72;;;21.73;65.71
55759;BME280;41678;52.126;20.664;2023-07-31T17:27:36;99678.34;;;21.71;65.65
55759;BME280;41678;52.126;20.664;2023-07-31T17:32:55;99679.56;;;21.65;65.88
55759;BME280;41678;52.126;20.664;2023-07-31T17:38:15;99681.50;;;21.63;66.07
55759;BME280;41678;52.126;20.664;2023-07-31T17:43:35;99689.63;;;21.61;65.92
55759;BME280;41678;52.126;20.664;2023-07-31T17:48:54;99688.13;;;21.57;65.79
55759;BME280;41678;52.126;20.664;2023-07-31T17:54:14;99687.69;;;21.50;66.07
55759;BME280;41678;52.126;20.664;2023-07-31T17:59:33;99694.28;;;21.45;66.29
55759;BME280;41678;52.126;20.664;2023-07-31T18:04:53;99690.97;;;21.41;66.30
55759;BME280;41678;52.126;20.664;2023-07-31T18:10:13;99690.41;;;21.36;66.19
55759;BME280;41678;52.126;20.664;2023-07-31T18:15:32;99679.25;;;21.29;66.57
55759;BME280;41678;52.126;20.664;2023-07-31T18:20:52;99687.59;;;21.25;66.45
55759;BME280;41678;52.126;20.664;2023-07-31T18:26:11;99690.56;;;21.20;66.46
55759;BME280;41678;52.126;20.664;2023-07-31T18:31:31;99678.75;;;21.09;66.56
55759;BME280;41678;52.126;20.664;2023-07-31T18:36:51;99680.78;;;21.06;66.61
55759;BME280;41678;52.126;20.664;2023-07-31T18:42:10;99689.28;;;20.98;66.67
55759;BME280;41678;52.126;20.664;2023-07-31T18:47:29;99697.81;;;20.90;66.62
55759;BME280;41678;52.126;20.664;2023-07-31T18:52:49;99700.22;;;20.80;66.88
55759;BME280;41678;52.126;20.664;2023-07-31T18:58:09;99701.81;;;20.69;67.12
55759;BME280;41678;52.126;20.664;2023-07-31T19:03:29;99702.41;;;20.59;67.06
55759;BME280;41678;52.126;20.664;2023-07-31T19:08:48;99684.38;;;20.48;67.16
55759;BME280;41678;52.126;20.664;2023-07-31T19:14:08;99693.63;;;20.43;66.75
55759;BME280;41678;52.126;20.664;2023-07-31T19:19:28;99685.22;;;20.34;67.41
55759;BME280;41678;52.126;20.664;2023-07-31T19:24:48;99692.75;;;20.28;67.68
55759;BME280;41678;52.126;20.664;2023-07-31T19:30:07;99694.94;;;20.21;67.47
55759;BME280;41678;52.126;20.664;2023-07-31T19:35:28;99695.91;;;20.20;67.56
55759;BME280;41678;52.126;20.664;2023-07-31T19:40:47;99690.06;;;20.13;67.52
55759;BME280;41678;52.126;20.664;2023-07-31T19:46:10;99688.56;;;20.09;67.72
55759;BME280;41678;52.126;20.664;2023-07-31T19:51:47;99681.69;;;20.05;68.05
55759;BME280;41678;52.126;20.664;2023-07-31T19:57:07;99677.56;;;19.99;67.88
55759;BME280;41678;52.126;20.664;2023-07-31T20:02:26;99680.13;;;20.01;67.96
55759;BME280;41678;52.126;20.664;2023-07-31T20:07:46;99674.97;;;19.98;68.04
55759;BME280;41678;52.126;20.664;2023-07-31T20:13:05;99676.19;;;19.92;68.01
55759;BME280;41678;52.126;20.664;2023-07-31T20:18:25;99668.25;;;19.90;68.33
55759;BME280;41678;52.126;20.664;2023-07-31T20:23:47;99657.78;;;19.87;68.24
55759;BME280;41678;52.126;20.664;2023-07-31T20:29:07;99652.59;;;19.84;68.22
55759;BME280;41678;52.126;20.664;2023-07-31T20:34:27;99636.88;;;19.79;68.53
55759;BME280;41678;52.126;20.664;2023-07-31T20:39:46;99635.03;;;19.80;68.37
55759;BME280;41678;52.126;20.664;2023-07-31T20:45:06;99633.31;;;19.79;68.34
55759;BME280;41678;52.126;20.664;2023-07-31T20:50:26;99621.88;;;19.77;68.22
55759;BME280;41678;52.126;20.664;2023-07-31T20:55:47;99626.66;;;19.72;68.40
55759;BME280;41678;52.126;20.664;2023-07-31T21:01:06;99617.00;;;19.69;68.13
55759;BME280;41678;52.126;20.664;2023-07-31T21:06:26;99614.59;;;19.64;68.25
55759;BME280;41678;52.126;20.664;2023-07-31T21:11:45;99605.25;;;19.57;68.34
55759;BME280;41678;52.126;20.664;2023-07-31T21:17:05;99595.69;;;19.53;68.67
55759;BME280;41678;52.126;20.664;2023-07-31T21:22:25;99583.50;;;19.49;68.31
55759;BME280;41678;52.126;20.664;2023-07-31T21:27:44;99578.34;;;19.46;68.39
55759;BME280;41678;52.126;20.664;2023-07-31T21:33:04;99582.91;;;19.44;68.40
55759;BME280;41678;52.126;20.664;2023-07-31T21:38:24;99573.34;;;19.39;68.61
55759;BME280;41678;52.126;20.664;2023-07-31T21:43:44;99565.81;;;19.32;68.73
55759;BME280;41678;52.126;20.664;2023-07-31T21:49:03;99555.31;;;19.29;68.22
55759;BME280;41678;52.126;20.664;2023-07-31T21:54:22;99547.59;;;19.24;68.61
55759;BME280;41678;52.126;20.664;2023-07-31T21:59:42;99550.44;;;19.21;68.80
55759;BME280;41678;52.126;20.664;2023-07-31T22:05:02;99544.34;;;19.19;68.46
55759;BME280;41678;52.126;20.664;2023-07-31T22:10:21;99542.69;;;19.16;68.72
55759;BME280;41678;52.126;20.664;2023-07-31T22:15:41;99550.06;;;19.13;68.77
55759;BME280;41678;52.126;20.664;2023-07-31T22:21:01;99541.25;;;19.10;68.80
55759;BME280;41678;52.126;20.664;2023-07-31T22:26:21;99539.53;;;19.09;68.99
55759;BME280;41678;52.126;20.664;2023-07-31T22:31:40;99531.84;;;19.05;68.91
55759;BME280;41678;52.126;20.664;2023-07-31T22:37:00;99544.09;;;19.07;69.08
55759;BME280;41678;52.126;20.664;2023-07-31T22:42:20;99536.28;;;19.04;68.88
55759;BME280;41678;52.126;20.664;2023-07-31T22:47:39;99539.72;;;19.06;69.02
55759;BME280;41678;52.126;20.664;2023-07-31T22:52:59;99538.00;;;19.05;68.93
55759;BME280;41678;52.126;20.664;2023-07-31T22:58:19;99535.34;;;19.05;68.88
55759;BME280;41678;52.126;20.664;2023-07-31T23:03:39;99526.38;;;19.06;69.05
55759;BME280;41678;52.126;20.664;2023-07-31T23:08:59;99531.03;;;19.03;68.82
55759;BME280;41678;52.126;20.664;2023-07-31T23:14:19;99516.84;;;19.02;68.70
55759;BME280;41678;52.126;20.664;2023-07-31T23:19:38;99522.28;;;19.01;68.82
55759;BME280;41678;52.126;20.664;2023-07-31T23:24:58;99509.97;;;18.98;68.57
55759;BME280;41678;52.126;20.664;2023-07-31T23:30:17;99517.19;;;18.96;68.87
55759;BME280;41678;52.126;20.664;2023-07-31T23:35:37;99511.19;;;18.92;68.77
55759;BME280;41678;52.126;20.664;2023-07-31T23:40:56;99499.81;;;18.89;68.82
55759;BME280;41678;52.126;20.664;2023-07-31T23:46:16;99496.41;;;18.87;68.83
55759;BME280;41678;52.126;20.664;2023-07-31T23:51:35;99500.00;;;18.86;68.98
55759;BME280;41678;52.126;20.664;2023-07-31T23:56:54;99478.88;;;18.82;69.20
